Time;durP1;ratioP1;P1;durP2;ratioP2;P2;SDS_P1;SDS_P2;PMS_P1;PMS_P2;Temp;Humidity;BMP_temperature;BMP_pressure;BME280_temperature;BME280_humidity;BME280_pressure;Samples;Min_cycle;Max_cycle;Signal;HPM_P1;HPM_P2
2022/11/01 00:01:29;;;;;;;;;;;;;;;17.57;54.77;99789.34;4483212;32;34077;-87
2022/11/01 00:03:57;;;;;;;;;;;;;;;17.63;54.49;99789.31;4479397;32;34879;-88
2022/11/01 00:06:24;;;;;;;;;;;;;;;17.76;54.26;99782.25;4467634;32;34099;-88
2022/11/01 00:08:51;;;;;;;;;;;;;;;17.43;54.82;99775.47;4467461;32;34805;-85
2022/11/01 00:11:18;;;;;;;;;;;;;;;17.83;53.95;99781.34;4467339;32;34087;-88
2022/11/01 00:13:46;;;;;;;;;;;;;;;17.09;55.89;99774.75;4469210;32;33809;-86
2022/11/01 00:16:13;;;;;;;;;;;;;;;17.38;55.20;99775.47;4468419;32;33426;-87
2022/11/01 00:18:41;;;;;;;;;;;;;;;17.05;55.91;99768.66;4482709;32;34934;-87
2022/11/01 00:21:08;;;;;;;;;;;;;;;15.99;58.70;99781.88;4482577;32;35196;-86
2022/11/01 00:23:36;;;;;;;;;;;;;;;17.14;55.83;99772.97;4467475;32;34489;-89
2022/11/01 00:26:03;;;;;;;;;;;;;;;16.46;57.52;99778.34;4467174;32;34342;-88
2022/11/01 00:28:30;;;;;;;;;;;;;;;17.36;55.26;99773.75;4466818;32;34171;-86
2022/11/01 00:30:58;;;;;;;;;;;;;;;17.38;55.29;99771.97;4453094;32;34115;-86
2022/11/01 00:33:25;;;;;;;;;;;;;;;17.29;55.35;99770.28;4467094;32;34403;-88
2022/11/01 00:35:52;;;;;;;;;;;;;;;17.18;55.62;99764.22;4482360;32;33539;-86
2022/11/01 00:38:19;;;;;;;;;;;;;;;17.16;55.83;99773.81;4482777;32;34079;-86
2022/11/01 00:40:47;;;;;;;;;;;;;;;15.81;60.13;99776.62;4482692;32;35247;-88
2022/11/01 00:43:14;;;;;;;;;;;;;;;16.47;58.07;99766.13;4482110;32;35065;-86
2022/11/01 00:45:42;;;;;;;;;;;;;;;16.63;57.50;99769.59;4468018;32;33137;-88
2022/11/01 00:48:11;;;;;;;;;;;;;;;16.95;56.57;99761.69;4466728;32;34242;-85
2022/11/01 00:50:38;;;;;;;;;;;;;;;17.24;55.75;99762.44;4466500;32;34160;-85
2022/11/01 00:53:05;;;;;;;;;;;;;;;17.77;54.44;99760.44;4452589;32;35131;-88
2022/11/01 00:55:33;;;;;;;;;;;;;;;16.74;57.19;99762.59;4479739;32;34216;-86
2022/11/01 00:58:00;;;;;;;;;;;;;;;16.57;57.95;99759.16;4468032;32;34289;-86
2022/11/01 01:00:28;;;;;;;;;;;;;;;16.36;58.42;99755.66;4482416;32;34284;-86
2022/11/01 01:02:55;;;;;;;;;;;;;;;17.06;56.17;99744.19;4484376;32;34099;-86
2022/11/01 01:05:23;;;;;;;;;;;;;;;16.35;57.92;99748.69;4471932;32;33280;-86
2022/11/01 01:07:50;;;;;;;;;;;;;;;15.88;59.98;99752.22;4468606;32;34802;-86
2022/11/01 01:10:17;;;;;;;;;;;;;;;15.98;59.63;99740.00;4468726;32;35022;-88
2022/11/01 01:12:44;;;;;;;;;;;;;;;16.98;56.83;99748.59;4468296;32;34756;-86
2022/11/01 01:15:11;;;;;;;;;;;;;;;16.29;58.40;99749.59;4479115;32;34333;-88
2022/11/01 01:17:39;;;;;;;;;;;;;;;16.63;57.76;99743.41;4484226;32;33876;-88
2022/11/01 01:20:06;;;;;;;;;;;;;;;16.45;58.40;99742.59;4469796;32;34871;-89
2022/11/01 01:22:33;;;;;;;;;;;;;;;16.19;59.30;99726.06;4484363;32;34557;-85
2022/11/01 01:25:01;;;;;;;;;;;;;;;16.45;58.42;99726.87;4475573;32;34226;-85
2022/11/01 01:27:28;;;;;;;;;;;;;;;16.11;59.22;99726.06;4468148;32;34905;-85
2022/11/01 01:29:55;;;;;;;;;;;;;;;16.43;58.05;99731.25;4468371;32;34491;-87
2022/11/01 01:32:23;;;;;;;;;;;;;;;17.16;56.30;99721.41;4468424;32;34230;-87
2022/11/01 01:34:50;;;;;;;;;;;;;;;17.16;55.99;99726.66;4475211;32;34444;-86
2022/11/01 01:37:19;;;;;;;;;;;;;;;17.01;56.74;99722.38;4484225;32;34961;-88
2022/11/01 01:39:46;;;;;;;;;;;;;;;16.45;58.04;99728.63;4484154;32;34515;-86
2022/11/01 01:42:25;;;;;;;;;;;;;;;16.66;57.43;99715.47;4484035;32;35237;-87
2022/11/01 01:44:53;;;;;;;;;;;;;;;15.80;60.07;99713.00;4462620;32;32849;-87
2022/11/01 01:47:21;;;;;;;;;;;;;;;16.24;58.89;99724.28;4468531;32;33525;-87
2022/11/01 01:49:48;;;;;;;;;;;;;;;15.92;59.19;99726.94;4454259;32;35045;-86
2022/11/01 01:52:16;;;;;;;;;;;;;;;16.22;58.95;99726.06;4468228;32;34219;-87
2022/11/01 01:54:43;;;;;;;;;;;;;;;16.26;58.50;99722.56;4459824;32;33430;-87
2022/11/01 01:57:10;;;;;;;;;;;;;;;16.25;58.49;99713.84;4483897;32;33861;-87
2022/11/01 01:59:37;;;;;;;;;;;;;;;15.61;59.96;99715.53;4469767;32;35037;-87
2022/11/01 02:02:05;;;;;;;;;;;;;;;16.32;58.36;99722.53;4483786;32;35241;-87
2022/11/01 02:04:34;;;;;;;;;;;;;;;16.12;59.02;99719.09;4478923;32;34654;-86
2022/11/01 02:07:02;;;;;;;;;;;;;;;16.15;58.79;99725.19;4468184;32;34247;-87
2022/11/01 02:09:29;;;;;;;;;;;;;;;15.73;59.45;99710.38;4453903;32;34235;-87
2022/11/01 02:11:58;;;;;;;;;;;;;;;15.97;59.65;99714.72;4453551;32;33975;-86
2022/11/01 02:14:25;;;;;;;;;;;;;;;15.90;59.66;99708.62;4454432;32;32615;-86
2022/11/01 02:17:18;;;;;;;;;;;;;;;15.70;60.28;99713.00;4468100;32;34630;-87
2022/11/01 02:19:54;;;;;;;;;;;;;;;15.91;59.55;99707.78;4466907;32;35092;-87
2022/11/01 02:22:40;;;;;;;;;;;;;;;16.02;59.41;99712.97;4468016;32;34522;-86
2022/11/01 02:25:27;;;;;;;;;;;;;;;16.03;59.22;99704.28;4463130;32;33321;-87
2022/11/01 02:28:04;;;;;;;;;;;;;;;15.85;59.85;99699.91;4483814;32;35001;-86
2022/11/01 02:30:42;;;;;;;;;;;;;;;15.95;59.74;99706.91;4469537;32;34457;-86
2022/11/01 02:33:28;;;;;;;;;;;;;;;15.89;59.80;99711.25;4469621;32;33852;-85
2022/11/01 02:36:03;;;;;;;;;;;;;;;16.53;57.89;99698.94;4468892;32;34440;-87
2022/11/01 02:38:35;;;;;;;;;;;;;;;16.19;58.59;99694.66;4453671;32;34177;-86
2022/11/01 02:41:07;;;;;;;;;;;;;;;15.77;59.64;99691.22;4467895;32;35242;-85
2022/11/01 02:43:51;;;;;;;;;;;;;;;15.26;61.10;99683.25;4467954;32;34408;-86
2022/11/01 02:49:05;;;;;;;;;;;;;;;15.45;60.78;99685.91;4452365;32;33959;-86
2022/11/01 02:51:33;;;;;;;;;;;;;;;14.50;64.25;99691.69;4448154;32;35058;-86
2022/11/01 02:54:07;;;;;;;;;;;;;;;15.28;61.55;99680.66;4469205;32;34247;-88
2022/11/01 02:56:34;;;;;;;;;;;;;;;15.70;60.07;99684.22;4483683;32;33849;-87
2022/11/01 02:59:01;;;;;;;;;;;;;;;15.73;60.03;99686.84;4469344;32;34994;-86
2022/11/01 03:01:28;;;;;;;;;;;;;;;16.19;58.87;99690.31;4465424;32;34226;-87
2022/11/01 03:03:56;;;;;;;;;;;;;;;16.82;57.10;99700.62;4453829;32;34242;-88
2022/11/01 03:06:26;;;;;;;;;;;;;;;16.67;57.44;99688.44;4468115;32;33452;-87
2022/11/01 03:08:56;;;;;;;;;;;;;;;16.83;56.58;99693.66;4453437;32;34166;-86
2022/11/01 03:11:47;;;;;;;;;;;;;;;16.03;58.96;99688.59;4456831;32;35405;-87
2022/11/01 03:14:23;;;;;;;;;;;;;;;15.66;59.98;99701.66;4475057;32;34668;-88
2022/11/01 03:17:06;;;;;;;;;;;;;;;15.67;59.85;99705.13;4483382;32;33541;-86
2022/11/01 03:19:45;;;;;;;;;;;;;;;15.64;59.31;99699.88;4473178;32;34084;-86
2022/11/01 03:22:21;;;;;;;;;;;;;;;15.84;59.76;99687.72;4467289;32;34496;-87
2022/11/01 03:24:48;;;;;;;;;;;;;;;16.15;58.71;99682.47;4467120;32;34690;-88
2022/11/01 03:27:18;;;;;;;;;;;;;;;15.79;59.71;99687.69;4467646;32;33725;-87
2022/11/01 03:29:47;;;;;;;;;;;;;;;16.04;58.94;99690.31;4463744;32;35168;-86
2022/11/01 03:32:14;;;;;;;;;;;;;;;16.67;57.30;99692.81;4469415;32;34435;-87
2022/11/01 03:34:42;;;;;;;;;;;;;;;17.09;55.76;99689.16;4469077;32;34991;-86
2022/11/01 03:37:10;;;;;;;;;;;;;;;16.92;56.32;99694.47;4468805;32;33304;-88
2022/11/01 03:39:41;;;;;;;;;;;;;;;15.35;60.38;99702.47;4458551;32;35030;-88
2022/11/01 03:42:10;;;;;;;;;;;;;;;16.36;57.89;99699.84;4453362;32;34452;-87
2022/11/01 03:44:40;;;;;;;;;;;;;;;16.16;58.36;99692.91;4453372;32;35430;-87
2022/11/01 03:47:07;;;;;;;;;;;;;;;15.36;61.05;99691.13;4480518;32;33418;-86
2022/11/01 03:49:34;;;;;;;;;;;;;;;14.96;62.53;99694.50;4468732;32;35096;-86
2022/11/01 03:52:01;;;;;;;;;;;;;;;15.72;59.88;99690.31;4468671;32;35160;-88
2022/11/01 03:54:28;;;;;;;;;;;;;;;16.16;58.61;99700.75;4483003;32;34559;-86
2022/11/01 03:56:56;;;;;;;;;;;;;;;15.82;59.57;99690.31;4470914;32;34288;-87
2022/11/01 03:59:23;;;;;;;;;;;;;;;15.44;60.86;99681.56;4467582;32;34162;-86
2022/11/01 04:01:50;;;;;;;;;;;;;;;16.53;57.70;99678.00;4467339;32;34518;-88
2022/11/01 04:04:18;;;;;;;;;;;;;;;16.30;58.17;99670.22;4467009;32;34462;-88
2022/11/01 04:06:45;;;;;;;;;;;;;;;16.19;58.59;99679.84;4476828;32;33304;-85
2022/11/01 04:09:12;;;;;;;;;;;;;;;16.10;58.86;99673.72;4483099;32;34043;-88
2022/11/01 04:11:39;;;;;;;;;;;;;;;15.73;59.74;99663.34;4482810;32;34443;-88
2022/11/01 04:22:24;;;;;;;;;;;;;;;16.32;58.02;99664.97;4467323;32;35049;-85
2022/11/01 04:24:51;;;;;;;;;;;;;;;15.76;59.71;99660.72;4482702;32;35245;-86
2022/11/01 04:27:18;;;;;;;;;;;;;;;16.72;56.94;99660.47;4482894;32;34318;-86
2022/11/01 04:29:46;;;;;;;;;;;;;;;17.19;55.67;99661.12;4482644;32;33842;-85
2022/11/01 04:32:13;;;;;;;;;;;;;;;16.69;56.15;99662.25;4482608;32;34067;-87
2022/11/01 04:34:43;;;;;;;;;;;;;;;16.33;57.26;99661.50;4467476;32;34296;-86
2022/11/01 04:37:10;;;;;;;;;;;;;;;15.62;59.17;99665.91;4468435;32;34253;-85
2022/11/01 04:39:38;;;;;;;;;;;;;;;16.22;57.97;99663.28;4455365;32;34134;-87
2022/11/01 04:42:05;;;;;;;;;;;;;;;15.70;59.40;99658.09;4484652;32;34400;-85
2022/11/01 04:44:32;;;;;;;;;;;;;;;15.37;60.63;99665.00;4484470;32;34073;-86
2022/11/01 04:46:59;;;;;;;;;;;;;;;16.38;57.65;99653.62;4470323;32;33612;-88
2022/11/01 04:49:26;;;;;;;;;;;;;;;16.04;58.51;99658.94;4459475;32;34372;-87
2022/11/01 04:51:54;;;;;;;;;;;;;;;16.41;57.59;99649.25;4468706;32;34876;-85
2022/11/01 04:54:21;;;;;;;;;;;;;;;15.55;60.18;99659.78;4468741;32;33889;-88
2022/11/01 04:56:48;;;;;;;;;;;;;;;15.72;59.84;99657.25;4468811;32;34102;-88
2022/11/01 04:59:15;;;;;;;;;;;;;;;16.58;57.38;99662.28;4459428;32;34508;-87
2022/11/01 05:01:43;;;;;;;;;;;;;;;16.23;58.43;99660.66;4452975;32;34932;-86
2022/11/01 05:04:11;;;;;;;;;;;;;;;14.84;62.52;99678.78;4453143;32;34508;-87
2022/11/01 05:06:38;;;;;;;;;;;;;;;16.13;58.58;99673.75;4453146;32;34261;-87
2022/11/01 05:09:05;;;;;;;;;;;;;;;15.59;60.44;99671.13;4452742;32;35630;-86
2022/11/01 05:11:32;;;;;;;;;;;;;;;16.37;57.75;99667.59;4453070;32;35331;-87
2022/11/01 05:14:00;;;;;;;;;;;;;;;16.33;58.01;99668.47;4439021;32;33971;-86
2022/11/01 05:16:27;;;;;;;;;;;;;;;15.97;58.93;99658.06;4452845;32;33092;-87
2022/11/01 05:18:56;;;;;;;;;;;;;;;15.80;59.47;99660.72;4453106;32;33779;-87
2022/11/01 05:21:24;;;;;;;;;;;;;;;15.77;59.38;99659.84;4453134;32;34062;-85
2022/11/01 05:23:51;;;;;;;;;;;;;;;16.16;58.08;99656.28;4453120;32;34033;-86
2022/11/01 05:26:18;;;;;;;;;;;;;;;15.90;58.85;99661.56;4453243;32;33445;-87
2022/11/01 05:28:45;;;;;;;;;;;;;;;16.74;56.71;99653.53;4453111;32;34755;-86
2022/11/01 05:31:12;;;;;;;;;;;;;;;17.02;55.83;99643.78;4453160;32;35154;-87
2022/11/01 05:33:39;;;;;;;;;;;;;;;17.03;55.68;99640.28;4452802;32;35289;-86
2022/11/01 05:36:07;;;;;;;;;;;;;;;16.23;57.77;99649.31;4452745;32;32837;-86
2022/11/01 05:38:34;;;;;;;;;;;;;;;16.57;56.94;99649.22;4452799;32;34220;-87
2022/11/01 05:41:02;;;;;;;;;;;;;;;15.93;58.52;99651.09;4452849;32;34451;-87
2022/11/01 05:43:29;;;;;;;;;;;;;;;16.53;57.33;99664.91;4452751;32;34041;-87
2022/11/01 05:45:56;;;;;;;;;;;;;;;15.90;58.75;99664.19;4452521;32;34507;-86
2022/11/01 05:48:23;;;;;;;;;;;;;;;15.84;59.08;99666.81;4452671;32;34343;-86
2022/11/01 05:50:51;;;;;;;;;;;;;;;16.68;56.81;99658.75;4452815;32;33994;-87
2022/11/01 05:53:18;;;;;;;;;;;;;;;16.34;57.63;99658.00;4460435;32;34238;-85
2022/11/01 05:55:45;;;;;;;;;;;;;;;15.56;59.62;99660.66;4471288;32;33445;-86
2022/11/01 05:58:12;;;;;;;;;;;;;;;15.39;60.56;99667.63;4484238;32;34662;-87
2022/11/01 06:00:40;;;;;;;;;;;;;;;15.56;60.06;99674.59;4483505;32;35056;-87
2022/11/01 06:03:07;;;;;;;;;;;;;;;15.13;61.70;99655.38;4483813;32;34377;-87
2022/11/01 06:05:36;;;;;;;;;;;;;;;15.99;58.84;99658.94;4482862;32;33355;-86
2022/11/01 06:08:03;;;;;;;;;;;;;;;15.58;60.12;99675.47;4474708;32;33992;-87
2022/11/01 06:10:31;;;;;;;;;;;;;;;15.12;61.71;99673.69;4483751;32;34282;-86
2022/11/01 06:12:58;;;;;;;;;;;;;;;15.93;59.12;99674.63;4483944;32;34099;-86
2022/11/01 06:15:26;;;;;;;;;;;;;;;16.16;58.20;99674.59;4483796;32;34180;-87
2022/11/01 06:17:57;;;;;;;;;;;;;;;15.97;58.71;99672.87;4477694;31;34192;-87
2022/11/01 06:20:25;;;;;;;;;;;;;;;16.69;56.87;99675.34;4454045;32;35304;-87
2022/11/01 06:22:52;;;;;;;;;;;;;;;16.83;55.97;99676.19;4453954;32;34259;-86
2022/11/01 06:25:19;;;;;;;;;;;;;;;16.80;56.42;99677.94;4467890;32;33494;-87
2022/11/01 06:27:48;;;;;;;;;;;;;;;16.45;56.71;99671.06;4458574;32;35019;-85
2022/11/01 06:30:15;;;;;;;;;;;;;;;16.51;56.62;99671.88;4469314;32;33817;-86
2022/11/01 06:32:42;;;;;;;;;;;;;;;16.84;55.80;99671.81;4469702;32;34353;-87
2022/11/01 06:35:10;;;;;;;;;;;;;;;16.52;56.57;99672.78;4477134;32;33980;-86
2022/11/01 06:37:38;;;;;;;;;;;;;;;16.97;55.24;99677.00;4468066;32;34937;-87
2022/11/01 06:40:05;;;;;;;;;;;;;;;16.68;55.95;99673.59;4467889;32;34849;-86
2022/11/01 06:42:32;;;;;;;;;;;;;;;15.86;58.05;99685.09;4467839;32;35108;-87
2022/11/01 06:45:00;;;;;;;;;;;;;;;15.56;58.92;99679.81;4474851;32;33883;-87
2022/11/01 06:47:27;;;;;;;;;;;;;;;16.59;56.27;99684.09;4483081;32;34563;-86
2022/11/01 06:49:54;;;;;;;;;;;;;;;17.00;54.88;99687.44;4483578;32;34490;-86
2022/11/01 06:52:21;;;;;;;;;;;;;;;16.53;56.33;99690.22;4483488;32;35174;-87
2022/11/01 06:54:49;;;;;;;;;;;;;;;16.70;55.72;99693.63;4476989;32;33479;-86
2022/11/01 06:57:16;;;;;;;;;;;;;;;15.92;57.94;99685.97;4468109;32;34508;-86
2022/11/01 06:59:43;;;;;;;;;;;;;;;14.75;62.44;99689.22;4466988;32;33907;-85
2022/11/01 07:02:10;;;;;;;;;;;;;;;15.81;59.02;99688.59;4467774;32;34061;-88
2022/11/01 07:04:40;;;;;;;;;;;;;;;16.46;57.06;99689.37;4472750;32;33556;-87
2022/11/01 07:07:08;;;;;;;;;;;;;;;15.89;58.58;99688.59;4483421;32;34856;-86
2022/11/01 07:09:35;;;;;;;;;;;;;;;15.79;59.45;99694.69;4483260;32;34482;-87
2022/11/01 07:12:02;;;;;;;;;;;;;;;15.92;58.70;99691.22;4476511;32;34574;-86
2022/11/01 07:14:30;;;;;;;;;;;;;;;16.45;57.18;99703.34;4452127;32;34207;-87
2022/11/01 07:16:57;;;;;;;;;;;;;;;16.05;58.42;99697.28;4452053;32;34078;-87
2022/11/01 07:19:24;;;;;;;;;;;;;;;16.44;56.51;99701.59;4452173;32;34396;-87
2022/11/01 07:21:51;;;;;;;;;;;;;;;16.09;57.61;99698.16;4463342;32;34594;-87
2022/11/01 07:24:18;;;;;;;;;;;;;;;15.28;60.41;99696.34;4483264;32;34382;-87
2022/11/01 07:26:46;;;;;;;;;;;;;;;16.45;57.18;99694.63;4483363;32;34778;-85
2022/11/01 07:29:14;;;;;;;;;;;;;;;15.87;57.90;99690.31;4483310;32;35164;-87
2022/11/01 07:31:41;;;;;;;;;;;;;;;16.31;57.02;99699.88;4478927;32;34448;-87
2022/11/01 07:34:08;;;;;;;;;;;;;;;16.80;55.57;99699.75;4467637;32;33574;-87
2022/11/01 07:36:35;;;;;;;;;;;;;;;16.60;56.20;99706.78;4467589;32;34166;-86
2022/11/01 07:39:03;;;;;;;;;;;;;;;16.69;56.12;99697.16;4467274;32;35180;-86
2022/11/01 07:41:30;;;;;;;;;;;;;;;15.20;60.42;99701.56;4477928;32;34403;-87
2022/11/01 07:43:57;;;;;;;;;;;;;;;15.49;59.37;99705.94;4483107;32;33628;-87
2022/11/01 07:46:24;;;;;;;;;;;;;;;16.60;56.42;99709.41;4479632;32;33680;-86
2022/11/01 07:48:51;;;;;;;;;;;;;;;15.22;60.32;99712.00;4468758;32;35702;-88
2022/11/01 07:51:18;;;;;;;;;;;;;;;15.61;59.59;99713.81;4473120;32;34832;-87
2022/11/01 07:53:46;;;;;;;;;;;;;;;16.80;55.78;99704.13;4467420;32;32946;-85
2022/11/01 07:56:13;;;;;;;;;;;;;;;17.12;54.84;99702.25;4469149;32;34011;-85
2022/11/01 07:58:42;;;;;;;;;;;;;;;16.69;55.59;99706.75;4469048;32;34348;-87
2022/11/01 08:01:10;;;;;;;;;;;;;;;16.59;56.21;99705.03;4481532;32;34195;-87
2022/11/01 08:03:37;;;;;;;;;;;;;;;15.62;59.40;99707.72;4482692;32;33243;-88
2022/11/01 08:06:04;;;;;;;;;;;;;;;15.33;60.20;99702.44;4482282;32;34213;-86
2022/11/01 08:08:32;;;;;;;;;;;;;;;15.54;59.51;99699.88;4467216;32;34271;-85
2022/11/01 08:11:00;;;;;;;;;;;;;;;16.40;57.05;99693.75;4467270;32;33838;-86
2022/11/01 08:13:27;;;;;;;;;;;;;;;15.51;60.11;99694.63;4467367;32;34433;-86
2022/11/01 08:15:54;;;;;;;;;;;;;;;16.47;57.19;99691.09;4467270;32;34944;-86
2022/11/01 08:18:23;;;;;;;;;;;;;;;15.17;61.05;99695.44;4467173;32;37051;-87
2022/11/01 08:20:50;;;;;;;;;;;;;;;16.15;58.17;99700.78;4467203;32;34147;-86
2022/11/01 08:23:17;;;;;;;;;;;;;;;15.25;61.01;99699.81;4466989;32;34138;-87
2022/11/01 08:25:44;;;;;;;;;;;;;;;15.48;59.76;99691.16;4467036;32;34164;-87
2022/11/01 08:28:16;;;;;;;;;;;;;;;16.56;57.34;99695.47;4480837;32;34353;-86
2022/11/01 08:30:44;;;;;;;;;;;;;;;15.22;60.88;99691.97;4482751;32;34281;-86
2022/11/01 08:33:11;;;;;;;;;;;;;;;16.19;58.11;99692.06;4468656;32;33096;-86
2022/11/01 08:35:38;;;;;;;;;;;;;;;16.46;57.31;99689.37;4482848;32;33464;-85
2022/11/01 08:38:05;;;;;;;;;;;;;;;15.28;60.17;99698.97;4470160;32;34048;-87
2022/11/01 08:40:33;;;;;;;;;;;;;;;15.68;59.30;99697.31;4482599;32;34933;-86
2022/11/01 08:43:00;;;;;;;;;;;;;;;15.71;59.44;99699.03;4482974;32;33545;-86
2022/11/01 08:45:28;;;;;;;;;;;;;;;15.32;60.20;99698.09;4482307;32;34103;-87
2022/11/01 08:47:57;;;;;;;;;;;;;;;15.40;59.56;99698.97;4469896;32;33590;-87
2022/11/01 08:50:24;;;;;;;;;;;;;;;15.84;58.82;99697.31;4467051;32;34347;-88
2022/11/01 08:52:51;;;;;;;;;;;;;;;14.90;61.81;99699.72;4466419;32;34280;-88
2022/11/01 08:55:18;;;;;;;;;;;;;;;14.68;62.87;99697.88;4466575;32;34297;-87
2022/11/01 08:57:45;;;;;;;;;;;;;;;14.59;62.76;99704.81;4477255;32;35119;-85
2022/11/01 09:00:13;;;;;;;;;;;;;;;15.01;61.76;99697.16;4481947;32;34262;-86
2022/11/01 09:02:40;;;;;;;;;;;;;;;14.25;64.23;99708.91;4482160;32;33601;-86
2022/11/01 09:05:08;;;;;;;;;;;;;;;15.37;61.17;99698.09;4481992;32;34913;-85
2022/11/01 09:07:35;;;;;;;;;;;;;;;15.22;61.38;99693.72;4480184;32;34779;-86
2022/11/01 09:10:03;;;;;;;;;;;;;;;16.77;56.71;99689.28;4467701;32;34509;-87
2022/11/01 09:12:30;;;;;;;;;;;;;;;16.38;57.44;99696.37;4481979;32;34259;-87
2022/11/01 09:14:57;;;;;;;;;;;;;;;15.83;58.92;99696.41;4453331;32;33024;-86
2022/11/01 09:17:25;;;;;;;;;;;;;;;15.60;59.69;99685.06;4466187;32;35180;-87
2022/11/01 09:19:52;;;;;;;;;;;;;;;16.41;57.45;99685.91;4452172;32;35080;-89
2022/11/01 09:22:19;;;;;;;;;;;;;;;16.45;57.41;99692.88;4467125;32;34271;-86
2022/11/01 09:24:46;;;;;;;;;;;;;;;16.11;58.32;99686.84;4480628;32;34166;-87
2022/11/01 09:27:13;;;;;;;;;;;;;;;15.63;59.58;99690.28;4484052;32;34462;-86
2022/11/01 09:29:40;;;;;;;;;;;;;;;16.18;58.13;99683.34;4483792;32;34153;-86
2022/11/01 09:32:12;;;;;;;;;;;;;;;15.96;58.92;99676.38;4484210;32;33237;-88
2022/11/01 09:34:39;;;;;;;;;;;;;;;16.02;58.81;99687.72;4472581;32;34340;-87
2022/11/01 09:37:07;;;;;;;;;;;;;;;15.64;60.02;99689.41;4465987;32;34967;-86
2022/11/01 09:39:34;;;;;;;;;;;;;;;15.50;60.19;99692.91;4452695;32;34155;-87
2022/11/01 09:42:02;;;;;;;;;;;;;;;14.52;63.13;99703.03;4453223;32;33206;-86
2022/11/01 09:44:33;;;;;;;;;;;;;;;15.62;60.14;99691.19;4472461;32;34724;-86
2022/11/01 09:47:02;;;;;;;;;;;;;;;15.33;60.94;99678.94;4484318;32;35186;-84
2022/11/01 09:49:32;;;;;;;;;;;;;;;15.21;61.23;99678.91;4484076;32;34244;-86
2022/11/01 09:51:59;;;;;;;;;;;;;;;15.78;59.81;99682.50;4470068;32;34221;-86
2022/11/01 09:54:26;;;;;;;;;;;;;;;15.51;60.34;99681.56;4474229;32;33917;-86
2022/11/01 09:57:06;;;;;;;;;;;;;;;15.91;59.31;99676.41;4468279;32;34346;-86
2022/11/01 09:59:46;;;;;;;;;;;;;;;15.72;59.95;99685.09;4468484;32;35159;-86
2022/11/01 10:02:30;;;;;;;;;;;;;;;16.30;58.01;99678.06;4453989;32;33459;-85
2022/11/01 10:05:04;;;;;;;;;;;;;;;16.18;58.82;99677.25;4465969;32;34396;-85
2022/11/01 10:07:34;;;;;;;;;;;;;;;16.73;57.34;99677.06;4483526;32;34555;-85
2022/11/01 10:10:20;;;;;;;;;;;;;;;16.69;57.47;99675.34;4483815;32;34087;-86
2022/11/01 10:13:06;;;;;;;;;;;;;;;16.46;57.73;99672.78;4452520;32;33675;-86
2022/11/01 10:15:51;;;;;;;;;;;;;;;16.18;58.51;99674.63;4438673;32;34322;-86
2022/11/01 10:18:29;;;;;;;;;;;;;;;16.47;58.10;99666.69;4452546;32;34416;-86
2022/11/01 10:21:03;;;;;;;;;;;;;;;16.46;57.99;99667.56;4462190;32;33783;-86
2022/11/01 10:23:47;;;;;;;;;;;;;;;15.52;60.22;99666.75;4483942;32;33463;-86
2022/11/01 10:26:24;;;;;;;;;;;;;;;16.34;58.24;99665.84;4469761;32;33495;-86
2022/11/01 10:28:58;;;;;;;;;;;;;;;15.94;59.22;99662.44;4469616;32;35058;-86
2022/11/01 10:31:26;;;;;;;;;;;;;;;15.33;61.06;99668.47;4462057;32;33662;-86
2022/11/01 10:34:01;;;;;;;;;;;;;;;15.59;60.24;99671.13;4452692;32;34170;-85
2022/11/01 10:36:32;;;;;;;;;;;;;;;15.88;59.73;99658.09;4453736;32;34237;-86
2022/11/01 10:38:59;;;;;;;;;;;;;;;15.91;59.08;99660.72;4469717;32;34227;-85
2022/11/01 10:41:48;;;;;;;;;;;;;;;15.92;59.59;99662.44;4467881;32;34346;-86
2022/11/01 10:44:37;;;;;;;;;;;;;;;15.86;59.70;99667.66;4453663;32;33472;-86
2022/11/01 10:47:05;;;;;;;;;;;;;;;16.38;58.00;99670.19;4467968;32;33746;-86
2022/11/01 10:49:37;;;;;;;;;;;;;;;14.96;62.21;99673.59;4453959;32;35071;-86
2022/11/01 10:52:26;;;;;;;;;;;;;;;15.74;60.21;99670.28;4452100;32;35026;-85
2022/11/01 10:54:53;;;;;;;;;;;;;;;15.63;60.63;99667.63;4438477;32;33649;-86
2022/11/01 10:57:39;;;;;;;;;;;;;;;15.17;62.43;99666.72;4438361;32;33271;-86
2022/11/01 11:00:10;;;;;;;;;;;;;;;15.81;60.24;99661.56;4440076;32;34298;-87
2022/11/01 11:02:39;;;;;;;;;;;;;;;15.71;60.61;99658.09;4469470;32;35293;-86
2022/11/01 11:05:06;;;;;;;;;;;;;;;16.39;58.75;99664.09;4483496;32;34241;-86
2022/11/01 11:07:33;;;;;;;;;;;;;;;16.36;58.68;99663.22;4483309;32;33720;-86
2022/11/01 11:10:01;;;;;;;;;;;;;;;16.15;59.40;99658.94;4468856;32;34150;-87
2022/11/01 11:12:33;;;;;;;;;;;;;;;15.50;60.47;99664.16;4467703;32;34646;-86
2022/11/01 11:15:02;;;;;;;;;;;;;;;15.92;59.65;99654.59;4453550;32;33148;-86
2022/11/01 11:17:42;;;;;;;;;;;;;;;15.90;59.94;99655.47;4467869;32;34219;-86
2022/11/01 11:20:10;;;;;;;;;;;;;;;16.79;57.71;99645.66;4468576;32;34229;-85
2022/11/01 11:22:38;;;;;;;;;;;;;;;15.02;62.29;99646.66;4483411;32;35082;-86
2022/11/01 11:25:11;;;;;;;;;;;;;;;15.25;61.84;99650.19;4469535;32;33831;-86
2022/11/01 11:27:40;;;;;;;;;;;;;;;15.51;61.41;99646.72;4469002;32;33970;-86
2022/11/01 11:30:07;;;;;;;;;;;;;;;15.65;60.80;99644.13;4482653;32;35048;-86
2022/11/01 11:32:37;;;;;;;;;;;;;;;16.33;58.48;99637.97;4467794;32;34871;-86
2022/11/01 11:35:18;;;;;;;;;;;;;;;16.74;57.54;99640.44;4467570;32;34245;-86
2022/11/01 11:37:59;;;;;;;;;;;;;;;17.10;56.60;99646.34;4440689;32;34400;-86
2022/11/01 11:40:28;;;;;;;;;;;;;;;16.78;56.80;99634.31;4470130;32;34455;-86
2022/11/01 11:43:16;;;;;;;;;;;;;;;17.10;56.54;99635.87;4469401;32;34369;-86
2022/11/01 11:45:43;;;;;;;;;;;;;;;17.34;55.23;99628.72;4482779;32;33278;-86
2022/11/01 11:48:14;;;;;;;;;;;;;;;17.21;55.00;99623.56;4468923;32;34086;-86
2022/11/01 11:50:42;;;;;;;;;;;;;;;17.31;54.89;99634.84;4478501;32;34405;-85
2022/11/01 11:53:17;;;;;;;;;;;;;;;17.20;55.05;99631.47;4467404;32;34287;-85
2022/11/01 11:55:44;;;;;;;;;;;;;;;16.21;58.19;99640.59;4467574;32;34309;-86
2022/11/01 11:58:15;;;;;;;;;;;;;;;16.88;56.45;99627.25;4467455;32;33853;-87
2022/11/01 12:00:42;;;;;;;;;;;;;;;17.04;55.76;99625.41;4456734;32;35013;-85
2022/11/01 12:03:11;;;;;;;;;;;;;;;17.06;56.00;99628.91;4468640;32;34559;-86
2022/11/01 12:05:48;;;;;;;;;;;;;;;17.24;55.50;99622.69;4483431;32;33153;-86
2022/11/01 12:08:23;;;;;;;;;;;;;;;16.95;56.22;99615.00;4483209;32;35073;-86
2022/11/01 12:10:54;;;;;;;;;;;;;;;16.88;56.54;99614.16;4464919;32;34507;-86
2022/11/01 12:13:24;;;;;;;;;;;;;;;17.35;55.08;99617.34;4453333;32;34995;-86
2022/11/01 12:16:10;;;;;;;;;;;;;;;16.97;55.36;99614.13;4453175;32;33659;-84
2022/11/01 12:18:54;;;;;;;;;;;;;;;17.62;54.18;99613.66;4467001;32;34235;-87
2022/11/01 12:21:25;;;;;;;;;;;;;;;17.65;54.20;99611.00;4473246;32;33919;-86
2022/11/01 12:24:00;;;;;;;;;;;;;;;18.02;53.29;99615.94;4482824;32;35768;-86
2022/11/01 12:26:28;;;;;;;;;;;;;;;18.19;52.71;99606.13;4482743;32;33556;-85
2022/11/01 12:29:03;;;;;;;;;;;;;;;17.36;55.24;99604.25;4482843;32;33916;-86
2022/11/01 12:31:31;;;;;;;;;;;;;;;17.87;53.25;99609.06;4445568;32;35370;-85
2022/11/01 12:34:02;;;;;;;;;;;;;;;17.83;53.52;99597.75;4463521;32;34103;-85
2022/11/01 12:36:30;;;;;;;;;;;;;;;17.75;53.97;99589.09;4445706;32;33468;-85
2022/11/01 12:39:03;;;;;;;;;;;;;;;17.80;53.72;99597.78;4439839;32;34202;-86
2022/11/01 12:41:34;;;;;;;;;;;;;;;17.65;53.37;99592.62;4441823;32;35346;-87
2022/11/01 12:44:20;;;;;;;;;;;;;;;18.35;51.14;99591.94;4439709;32;34418;-86
2022/11/01 12:46:49;;;;;;;;;;;;;;;17.74;52.86;99582.06;4451345;32;34338;-87
2022/11/01 12:49:25;;;;;;;;;;;;;;;18.04;51.45;99580.06;4438519;32;34536;-86
2022/11/01 12:51:54;;;;;;;;;;;;;;;18.61;50.38;99582.87;4465568;32;34096;-85
2022/11/01 12:54:30;;;;;;;;;;;;;;;18.62;50.00;99579.34;4452067;32;34183;-87
2022/11/01 12:56:58;;;;;;;;;;;;;;;18.15;51.77;99584.31;4448006;32;33616;-85
2022/11/01 12:59:31;;;;;;;;;;;;;;;18.90;49.46;99572.88;4456666;32;34318;-85
2022/11/01 13:02:03;;;;;;;;;;;;;;;18.96;49.86;99574.53;4472274;32;34640;-86
2022/11/01 13:04:35;;;;;;;;;;;;;;;17.87;52.86;99588.97;4440778;32;34284;-84
2022/11/01 13:07:04;;;;;;;;;;;;;;;17.65;52.48;99580.44;4440422;32;33968;-84
2022/11/01 13:09:42;;;;;;;;;;;;;;;16.67;56.01;99582.84;4438866;32;33589;-85
2022/11/01 13:12:12;;;;;;;;;;;;;;;17.96;52.20;99573.16;4459832;32;35110;-86